Time;durP1;ratioP1;P1;durP2;ratioP2;P2;SDS_P1;SDS_P2;PMS_P1;PMS_P2;Temp;Humidity;BMP_temperature;BMP_pressure;BME280_temperature;BME280_humidity;BME280_pressure;Samples;Min_cycle;Max_cycle;Signal;HPM_P1;HPM_P2
2021/10/11 03:04:08;;;;;;;3.17;2.63;;;21.10;46.80;;;;;;4340414;23;20517;-61
2021/10/11 03:06:34;;;;;;;4.07;2.80;;;21.10;46.80;;;;;;4973675;28;20506;-61
2021/10/11 03:08:59;;;;;;;4.10;3.28;;;21.10;47.10;;;;;;4975509;28;20496;-63
2021/10/11 03:11:25;;;;;;;5.93;3.03;;;21.10;47.80;;;;;;4975671;28;20396;-61
2021/10/11 03:13:51;;;;;;;5.28;3.08;;;21.10;47.90;;;;;;4974848;28;20447;-61
2021/10/11 03:16:16;;;;;;;4.40;3.07;;;21.20;48.00;;;;;;4975337;28;20396;-61
2021/10/11 03:18:42;;;;;;;4.87;3.10;;;21.20;48.40;;;;;;4975544;28;20401;-62
2021/10/11 03:21:08;;;;;;;7.95;3.35;;;21.20;49.70;;;;;;4975329;28;20476;-64
2021/10/11 03:23:33;;;;;;;14.50;3.20;;;21.20;49.10;;;;;;4974925;28;20475;-63
2021/10/11 03:25:59;;;;;;;11.57;3.90;;;21.30;49.70;;;;;;4974842;28;20388;-63
2021/10/11 03:28:24;;;;;;;11.13;3.80;;;21.40;49.40;;;;;;4975238;28;20404;-64
2021/10/11 03:30:50;;;;;;;8.18;3.22;;;21.40;49.70;;;;;;4975024;28;20427;-63
2021/10/11 03:33:16;;;;;;;6.03;3.20;;;21.50;50.00;;;;;;4957171;28;20412;-63
2021/10/11 03:35:41;;;;;;;10.63;3.42;;;21.50;49.70;;;;;;4974510;28;20440;-62
2021/10/11 03:38:07;;;;;;;6.83;3.40;;;21.50;49.70;;;;;;4974348;28;20760;-62
2021/10/11 03:40:33;;;;;;;6.50;3.30;;;21.50;49.90;;;;;;4974626;28;20396;-62
2021/10/11 03:42:58;;;;;;;5.87;3.00;;;21.50;49.60;;;;;;4974654;28;20392;-62
2021/10/11 03:45:24;;;;;;;6.85;3.15;;;21.50;49.60;;;;;;4974795;28;20402;-60
2021/10/11 03:47:50;;;;;;;6.70;3.13;;;21.50;50.00;;;;;;4973841;28;20431;-64
2021/10/11 03:50:15;;;;;;;8.87;3.17;;;21.50;49.80;;;;;;4974186;28;20876;-64
2021/10/11 03:52:41;;;;;;;4.90;2.80;;;21.50;49.50;;;;;;4974645;28;20419;-65
2021/10/11 03:55:08;;;;;;;5.10;3.17;;;21.40;49.80;;;;;;4957207;28;20730;-65
2021/10/11 03:57:34;;;;;;;5.72;2.95;;;21.40;48.90;;;;;;4973719;28;20880;-65
2021/10/11 03:59:59;;;;;;;5.25;2.63;;;21.40;49.00;;;;;;4974401;28;20399;-65
2021/10/11 04:02:26;;;;;;;5.03;2.80;;;21.40;49.50;;;;;;4974321;28;21155;-65
2021/10/11 04:04:52;;;;;;;5.90;2.80;;;21.40;49.40;;;;;;4974012;28;20408;-65
2021/10/11 04:07:19;;;;;;;6.53;3.20;;;21.30;49.50;;;;;;4974263;28;20923;-65
2021/10/11 04:09:46;;;;;;;5.78;2.50;;;21.40;49.70;;;;;;4973760;28;20906;-65
2021/10/11 04:12:22;;;;;;;5.10;2.83;;;21.30;49.00;;;;;;4973779;28;20407;-65
2021/10/11 04:14:48;;;;;;;4.63;3.17;;;21.30;49.20;;;;;;4974280;28;20472;-65
2021/10/11 04:17:14;;;;;;;6.55;3.03;;;21.30;48.20;;;;;;4974230;28;20474;-65
2021/10/11 04:19:40;;;;;;;6.68;2.70;;;21.30;48.30;;;;;;4956349;28;20892;-66
2021/10/11 04:22:06;;;;;;;3.95;2.90;;;21.30;48.20;;;;;;4974037;28;20400;-65
2021/10/11 04:24:32;;;;;;;4.38;2.60;;;21.20;48.10;;;;;;4974215;28;20391;-65
2021/10/11 04:26:58;;;;;;;3.92;2.70;;;21.20;48.00;;;;;;4974105;28;20543;-64
2021/10/11 04:29:24;;;;;;;6.93;2.90;;;21.20;49.10;;;;;;4974133;28;20929;-65
2021/10/11 04:31:49;;;;;;;7.25;3.22;;;21.30;49.40;;;;;;4968630;28;20391;-65
2021/10/11 04:34:15;;;;;;;8.10;3.08;;;21.30;49.10;;;;;;4957344;28;20410;-65
2021/10/11 04:36:41;;;;;;;8.70;3.47;;;21.30;50.80;;;;;;4954749;28;20404;-66
2021/10/11 04:39:07;;;;;;;9.23;3.40;;;21.30;48.60;;;;;;4954662;28;20434;-66
2021/10/11 04:41:32;;;;;;;8.82;3.58;;;21.30;49.80;;;;;;4955727;28;20405;-65
2021/10/11 04:43:58;;;;;;;9.67;3.43;;;21.40;49.50;;;;;;4980321;28;20438;-65
2021/10/11 04:46:24;;;;;;;9.32;3.40;;;21.30;49.30;;;;;;4980100;28;20483;-64
2021/10/11 04:48:50;;;;;;;7.03;3.47;;;21.30;48.50;;;;;;4982973;28;20917;-64
2021/10/11 04:51:16;;;;;;;6.75;3.63;;;21.30;47.70;;;;;;4982431;28;20432;-65
2021/10/11 04:53:42;;;;;;;6.40;3.10;;;21.20;47.60;;;;;;4981801;28;20561;-64
2021/10/11 04:56:07;;;;;;;5.35;3.28;;;21.20;47.70;;;;;;4979410;28;20916;-64
2021/10/11 04:58:33;;;;;;;5.87;3.50;;;21.20;47.10;;;;;;4980747;28;20416;-65
2021/10/11 05:00:59;;;;;;;5.25;3.20;;;21.20;47.00;;;;;;4975907;28;20396;-64
2021/10/11 05:03:25;;;;;;;5.97;3.30;;;21.10;47.20;;;;;;4973469;28;20819;-64
2021/10/11 05:05:50;;;;;;;7.20;3.42;;;21.10;46.70;;;;;;4972533;28;20511;-64
2021/10/11 05:08:16;;;;;;;4.93;3.17;;;21.00;47.50;;;;;;4971371;28;20420;-64
2021/10/11 05:10:41;;;;;;;6.03;3.35;;;21.00;47.30;;;;;;4973102;28;20389;-65
2021/10/11 05:13:07;;;;;;;6.27;3.23;;;21.00;47.10;;;;;;4973673;28;20796;-64
2021/10/11 05:15:33;;;;;;;6.15;3.00;;;21.00;46.80;;;;;;4973304;28;20427;-64
2021/10/11 05:17:58;;;;;;;5.80;3.17;;;21.00;47.10;;;;;;4973008;28;20400;-64
2021/10/11 05:20:26;;;;;;;7.22;3.15;;;21.00;46.50;;;;;;4973200;28;20447;-64
2021/10/11 05:22:52;;;;;;;5.45;3.25;;;20.90;46.00;;;;;;4973065;28;20431;-64
2021/10/11 05:25:17;;;;;;;6.20;3.03;;;20.90;47.10;;;;;;4973127;28;20388;-64
2021/10/11 05:27:43;;;;;;;5.07;3.47;;;20.90;46.80;;;;;;4972507;28;20412;-64
2021/10/11 05:30:09;;;;;;;4.35;3.05;;;20.90;46.90;;;;;;4973086;28;20454;-64
2021/10/11 05:32:35;;;;;;;5.80;3.35;;;20.90;46.50;;;;;;4972979;28;20760;-64
2021/10/11 05:35:02;;;;;;;6.13;3.25;;;20.80;46.20;;;;;;4972764;28;20910;-64
2021/10/11 05:37:29;;;;;;;5.28;3.08;;;20.80;46.20;;;;;;4972633;28;20419;-64
2021/10/11 05:39:54;;;;;;;5.50;3.00;;;20.80;46.30;;;;;;4972321;28;20395;-64
2021/10/11 05:42:20;;;;;;;4.57;3.20;;;20.80;46.50;;;;;;4972905;28;20392;-64
2021/10/11 05:44:46;;;;;;;4.43;2.88;;;20.80;46.40;;;;;;4972825;28;20392;-64
2021/10/11 05:47:12;;;;;;;4.20;3.00;;;20.80;46.40;;;;;;4962206;28;20437;-64
2021/10/11 05:49:37;;;;;;;4.03;2.70;;;20.70;45.90;;;;;;4953087;28;20402;-63
2021/10/11 05:52:04;;;;;;;4.10;2.80;;;20.70;45.10;;;;;;4953470;29;20398;-63
2021/10/11 05:54:30;;;;;;;3.90;3.10;;;20.70;45.70;;;;;;4953525;28;20409;-64
2021/10/11 05:56:56;;;;;;;4.18;2.92;;;20.60;45.90;;;;;;4953371;29;20885;-63
2021/10/11 05:59:21;;;;;;;4.47;3.05;;;20.70;45.80;;;;;;4953405;28;20762;-63
2021/10/11 06:01:48;;;;;;;5.03;3.07;;;20.60;45.50;;;;;;4952891;29;20402;-63
2021/10/11 06:04:13;;;;;;;4.30;2.90;;;20.60;45.50;;;;;;4953215;28;20413;-65
2021/10/11 06:06:39;;;;;;;5.10;2.70;;;20.60;45.30;;;;;;4953327;28;20425;-65
2021/10/11 06:09:05;;;;;;;4.57;3.07;;;20.60;45.60;;;;;;4953288;28;20898;-64
2021/10/11 06:11:31;;;;;;;4.07;3.03;;;20.50;45.80;;;;;;4953338;29;20464;-64
2021/10/11 06:13:56;;;;;;;4.43;2.97;;;20.60;45.70;;;;;;4952752;28;20456;-64
2021/10/11 06:16:22;;;;;;;4.87;3.20;;;20.50;45.80;;;;;;4953300;29;20896;-64
2021/10/11 06:18:48;;;;;;;4.78;3.00;;;20.50;45.50;;;;;;4953850;28;20409;-64
2021/10/11 06:21:13;;;;;;;4.33;3.10;;;20.50;45.70;;;;;;4957196;29;20406;-64
2021/10/11 06:23:39;;;;;;;3.80;2.97;;;20.50;45.80;;;;;;4956646;29;20404;-64
2021/10/11 06:26:05;;;;;;;4.80;3.40;;;20.40;45.70;;;;;;4956911;29;20464;-64
2021/10/11 06:28:31;;;;;;;3.75;3.17;;;20.50;45.70;;;;;;4957025;28;20402;-64
2021/10/11 06:30:57;;;;;;;4.25;3.17;;;20.50;45.50;;;;;;4939619;29;20829;-64
2021/10/11 06:33:24;;;;;;;4.25;2.95;;;20.40;45.50;;;;;;4957031;28;20869;-64
2021/10/11 06:35:50;;;;;;;4.55;3.00;;;20.40;45.80;;;;;;4956086;29;20862;-64
2021/10/11 06:38:16;;;;;;;4.20;2.83;;;20.40;45.90;;;;;;4956789;29;20420;-64
2021/10/11 06:40:48;;;;;;;3.27;2.70;;;20.50;45.80;;;;;;4956737;29;20526;-64
2021/10/11 06:43:13;;;;;;;4.07;2.95;;;20.50;45.70;;;;;;4956771;29;20427;-64
2021/10/11 06:45:39;;;;;;;4.40;2.80;;;20.60;45.50;;;;;;4956287;28;20398;-64
2021/10/11 06:48:05;;;;;;;3.57;2.73;;;20.60;45.50;;;;;;4956508;28;20441;-64
2021/10/11 06:50:31;;;;;;;3.75;2.67;;;20.70;45.40;;;;;;4956693;29;20548;-64
2021/10/11 06:52:56;;;;;;;3.55;2.80;;;20.80;45.50;;;;;;4956529;28;20908;-64
2021/10/11 06:55:22;;;;;;;4.03;2.73;;;20.80;45.40;;;;;;4939326;29;20404;-64
2021/10/11 06:57:48;;;;;;;3.72;2.75;;;20.80;45.30;;;;;;4955948;29;20405;-64
2021/10/11 07:00:14;;;;;;;3.63;2.60;;;20.80;45.20;;;;;;4957298;28;20405;-64
2021/10/11 07:02:39;;;;;;;4.13;2.85;;;20.90;45.80;;;;;;4970321;28;20441;-64
2021/10/11 07:05:10;;;;;;;4.00;3.00;;;20.90;45.10;;;;;;4967011;28;20507;-65
2021/10/11 07:07:42;;;;;;;5.05;2.95;;;20.90;45.10;;;;;;4969588;28;20428;-64
2021/10/11 07:10:08;;;;;;;3.97;2.67;;;21.00;45.00;;;;;;4967048;28;20397;-64
2021/10/11 07:12:34;;;;;;;3.80;2.90;;;20.90;45.00;;;;;;4975382;28;20400;-65
2021/10/11 07:15:00;;;;;;;4.22;2.80;;;21.00;44.90;;;;;;4975567;28;20392;-65
2021/10/11 07:17:26;;;;;;;3.60;2.50;;;21.00;44.90;;;;;;4975436;28;20396;-65
2021/10/11 07:19:52;;;;;;;3.33;2.50;;;21.00;44.90;;;;;;4974912;28;20447;-64
2021/10/11 07:22:17;;;;;;;3.45;2.63;;;21.00;44.90;;;;;;4975245;28;20939;-64
2021/10/11 07:24:45;;;;;;;4.78;3.00;;;21.10;44.90;;;;;;4975284;28;20439;-64
2021/10/11 07:27:11;;;;;;;4.47;3.20;;;21.10;45.40;;;;;;4975181;28;20499;-64
2021/10/11 07:29:37;;;;;;;3.70;2.78;;;21.20;44.90;;;;;;4975106;28;20385;-64
2021/10/11 07:32:04;;;;;;;3.90;2.65;;;21.10;44.90;;;;;;4973846;28;20386;-64
2021/10/11 07:34:30;;;;;;;4.53;2.72;;;21.20;44.90;;;;;;4975170;28;20852;-65
2021/10/11 07:36:56;;;;;;;3.75;2.50;;;21.20;44.80;;;;;;4975041;28;20399;-64
2021/10/11 07:39:22;;;;;;;3.60;2.50;;;21.30;44.90;;;;;;4974757;28;20392;-64
2021/10/11 07:41:48;;;;;;;3.60;2.53;;;21.30;44.80;;;;;;4974595;28;20894;-64
2021/10/11 07:44:13;;;;;;;3.58;2.60;;;21.30;44.90;;;;;;4974918;28;20446;-64
2021/10/11 07:46:39;;;;;;;3.50;2.43;;;21.30;44.80;;;;;;4974911;28;20415;-64
2021/10/11 07:49:05;;;;;;;3.42;2.70;;;21.30;44.80;;;;;;4974724;28;20416;-64
2021/10/11 07:51:31;;;;;;;3.72;2.70;;;21.30;44.80;;;;;;4974875;28;20896;-64
2021/10/11 07:53:57;;;;;;;4.10;2.55;;;21.40;44.80;;;;;;4975464;28;20491;-65
2021/10/11 07:56:23;;;;;;;3.53;2.90;;;21.40;44.80;;;;;;4980634;28;20386;-64
2021/10/11 07:58:48;;;;;;;3.92;2.80;;;21.50;44.80;;;;;;4979825;28;20397;-64
2021/10/11 08:01:14;;;;;;;4.17;2.93;;;21.50;44.70;;;;;;4970574;28;20866;-65
2021/10/11 08:03:39;;;;;;;4.50;2.72;;;21.50;44.70;;;;;;4977193;28;20752;-65
2021/10/11 08:06:07;;;;;;;4.53;2.67;;;21.60;44.70;;;;;;4971095;28;20813;-65
2021/10/11 08:08:34;;;;;;;3.58;2.60;;;21.60;44.60;;;;;;4974780;28;20387;-64
2021/10/11 08:11:00;;;;;;;5.03;3.03;;;21.60;44.60;;;;;;4974428;28;20926;-64
2021/10/11 08:13:27;;;;;;;4.07;2.45;;;21.60;44.60;;;;;;4974395;28;20407;-64
2021/10/11 08:15:53;;;;;;;4.28;2.60;;;21.70;45.00;;;;;;4973833;28;20733;-64
2021/10/11 08:18:19;;;;;;;3.80;2.60;;;21.70;45.30;;;;;;4956519;28;20892;-64
2021/10/11 08:20:46;;;;;;;3.80;2.97;;;21.80;44.80;;;;;;4981890;28;20413;-65
2021/10/11 08:23:12;;;;;;;4.50;2.90;;;21.80;44.70;;;;;;4992099;28;20866;-64
2021/10/11 08:25:37;;;;;;;3.47;2.60;;;21.90;44.60;;;;;;4991802;28;20460;-64
2021/10/11 08:28:04;;;;;;;4.82;3.15;;;21.90;44.60;;;;;;4985146;28;20424;-65
2021/10/11 08:30:31;;;;;;;3.83;2.83;;;21.90;44.50;;;;;;4981331;28;20426;-66
2021/10/11 08:32:57;;;;;;;4.72;3.10;;;21.90;44.40;;;;;;4981929;28;20466;-66
2021/10/11 08:35:23;;;;;;;3.38;2.50;;;21.90;44.50;;;;;;4980186;28;20438;-65
2021/10/11 08:37:50;;;;;;;4.30;2.97;;;21.90;44.60;;;;;;4980786;28;20399;-65
2021/10/11 08:40:16;;;;;;;4.07;2.80;;;21.90;44.60;;;;;;4981885;28;21240;-65
2021/10/11 08:42:42;;;;;;;3.78;2.78;;;21.90;44.60;;;;;;4979998;28;20415;-64
2021/10/11 08:45:09;;;;;;;3.47;2.53;;;21.90;45.20;;;;;;4981312;28;20395;-64
2021/10/11 08:47:36;;;;;;;3.92;2.75;;;22.00;44.60;;;;;;4981389;28;20789;-64
2021/10/11 08:50:04;;;;;;;4.03;2.83;;;22.00;44.70;;;;;;4979981;28;20477;-65
2021/10/11 08:52:29;;;;;;;4.37;3.20;;;22.00;44.70;;;;;;4981097;28;20921;-64
2021/10/11 08:54:55;;;;;;;3.33;2.72;;;22.00;44.80;;;;;;4981429;28;20392;-64
2021/10/11 08:57:25;;;;;;;3.80;2.90;;;22.10;44.80;;;;;;4979663;28;20484;-64
2021/10/11 08:59:52;;;;;;;4.57;3.10;;;22.20;44.70;;;;;;4981266;28;20390;-66
2021/10/11 09:02:20;;;;;;;4.53;2.70;;;22.20;44.80;;;;;;4982879;28;20455;-64
2021/10/11 09:04:52;;;;;;;3.65;2.70;;;22.20;44.90;;;;;;4978807;28;20420;-65
2021/10/11 09:07:26;;;;;;;3.88;2.83;;;22.20;45.00;;;;;;4980922;28;20485;-65
2021/10/11 09:09:54;;;;;;;3.80;2.80;;;22.20;44.80;;;;;;4979150;28;20393;-64
2021/10/11 09:12:21;;;;;;;3.17;2.70;;;22.20;44.80;;;;;;4980844;28;20403;-65
2021/10/11 09:14:52;;;;;;;3.28;2.70;;;22.30;44.90;;;;;;4982119;28;20444;-64
2021/10/11 09:17:24;;;;;;;4.00;2.88;;;22.30;44.90;;;;;;4982653;28;20442;-65
2021/10/11 09:19:57;;;;;;;3.17;2.60;;;22.40;44.90;;;;;;4978860;28;20757;-64
2021/10/11 09:22:34;;;;;;;3.05;2.55;;;22.40;44.90;;;;;;4980806;28;20512;-64
2021/10/11 09:25:00;;;;;;;3.92;3.05;;;22.50;45.00;;;;;;4980633;28;20459;-65
2021/10/11 09:27:27;;;;;;;3.70;2.70;;;22.50;44.90;;;;;;4982353;28;20514;-65
2021/10/11 09:29:54;;;;;;;4.07;2.80;;;22.60;44.90;;;;;;4981303;28;20955;-64
2021/10/11 09:32:30;;;;;;;3.50;2.80;;;22.60;44.70;;;;;;4980437;28;20490;-64
2021/10/11 09:35:11;;;;;;;3.80;2.70;;;22.60;44.70;;;;;;4980813;28;20918;-65
2021/10/11 09:37:38;;;;;;;4.00;2.92;;;22.70;44.70;;;;;;4981297;28;20792;-64
2021/10/11 09:40:08;;;;;;;4.30;3.20;;;22.70;44.50;;;;;;4976628;28;20392;-64
2021/10/11 09:42:35;;;;;;;3.50;2.72;;;22.80;44.50;;;;;;4981033;28;20473;-65
2021/10/11 09:45:02;;;;;;;4.10;2.97;;;22.80;44.40;;;;;;4981968;28;20942;-64
2021/10/11 09:47:37;;;;;;;3.08;2.53;;;22.90;44.40;;;;;;4980764;28;20434;-64
2021/10/11 09:50:07;;;;;;;4.18;2.63;;;22.90;44.40;;;;;;4979647;28;20475;-64
2021/10/11 09:52:34;;;;;;;4.50;2.92;;;22.90;44.30;;;;;;4980959;28;20398;-64
2021/10/11 09:55:00;;;;;;;3.00;2.63;;;23.00;44.20;;;;;;4981384;28;20394;-65
2021/10/11 09:57:26;;;;;;;3.42;2.58;;;23.00;44.00;;;;;;4971194;28;20388;-64
2021/10/11 09:59:53;;;;;;;3.20;2.60;;;23.10;44.10;;;;;;4980693;28;20394;-65
2021/10/11 10:02:25;;;;;;;3.72;2.50;;;23.10;44.00;;;;;;4982121;28;20383;-65
2021/10/11 10:04:56;;;;;;;3.38;2.70;;;23.10;43.80;;;;;;4979138;28;20934;-64
2021/10/11 10:07:26;;;;;;;4.05;2.67;;;23.20;43.90;;;;;;4979960;28;20511;-65
2021/10/11 10:09:54;;;;;;;4.18;2.67;;;23.20;43.60;;;;;;4980806;28;20390;-65
2021/10/11 10:12:20;;;;;;;4.15;2.70;;;23.30;43.80;;;;;;4981939;28;20402;-65
2021/10/11 10:14:56;;;;;;;3.95;2.83;;;23.30;43.80;;;;;;4962806;28;20401;-65
2021/10/11 10:17:34;;;;;;;3.25;2.50;;;23.30;43.60;;;;;;4980122;28;20424;-66
2021/10/11 10:20:11;;;;;;;3.85;2.75;;;23.40;43.70;;;;;;4979415;28;20384;-65
2021/10/11 10:22:50;;;;;;;3.40;2.70;;;23.40;43.40;;;;;;4962927;28;20758;-64
2021/10/11 10:25:15;;;;;;;3.72;2.63;;;23.40;43.50;;;;;;4969131;28;20390;-65
2021/10/11 10:27:41;;;;;;;3.80;2.65;;;23.50;43.40;;;;;;4981658;28;20846;-65
2021/10/11 10:30:21;;;;;;;3.53;2.40;;;23.50;43.30;;;;;;4979759;28;20400;-65
2021/10/11 10:32:54;;;;;;;3.60;2.60;;;23.50;43.30;;;;;;4977751;28;21194;-64
2021/10/11 10:35:20;;;;;;;3.40;2.50;;;23.60;43.30;;;;;;4980053;28;20404;-65
2021/10/11 10:37:46;;;;;;;3.60;2.47;;;23.60;43.10;;;;;;4981714;28;20458;-64
2021/10/11 10:40:16;;;;;;;3.35;2.40;;;23.70;43.20;;;;;;4980193;28;20451;-64
2021/10/11 10:42:44;;;;;;;3.38;2.53;;;23.70;43.20;;;;;;4979937;28;20403;-65
2021/10/11 10:45:29;;;;;;;2.80;2.40;;;23.80;43.20;;;;;;4981079;28;20481;-65
2021/10/11 10:47:55;;;;;;;3.58;2.60;;;23.80;43.10;;;;;;4979348;28;20981;-65
2021/10/11 10:50:27;;;;;;;3.85;2.80;;;23.80;43.00;;;;;;4977065;28;20892;-66
2021/10/11 10:52:56;;;;;;;4.00;2.70;;;23.90;43.00;;;;;;4977280;28;20392;-65
2021/10/11 10:55:22;;;;;;;3.15;2.45;;;24.00;42.90;;;;;;4980613;28;20798;-64
2021/10/11 10:57:48;;;;;;;3.47;2.58;;;24.00;42.80;;;;;;4980832;28;20884;-64
2021/10/11 11:00:17;;;;;;;3.83;2.90;;;24.10;42.80;;;;;;4961708;28;20412;-64
2021/10/11 11:02:50;;;;;;;3.30;2.60;;;24.10;42.60;;;;;;4980529;28;20426;-65
2021/10/11 11:05:21;;;;;;;3.17;2.60;;;24.20;42.60;;;;;;4976947;28;20412;-64
2021/10/11 11:07:48;;;;;;;3.65;2.70;;;24.20;42.60;;;;;;4983433;28;20418;-64
2021/10/11 11:10:19;;;;;;;3.53;2.70;;;24.20;42.40;;;;;;4984512;28;20383;-65
2021/10/11 11:12:54;;;;;;;2.90;2.40;;;24.30;42.50;;;;;;4984358;28;20396;-65
2021/10/11 11:15:37;;;;;;;3.13;2.38;;;24.30;42.30;;;;;;4981762;28;20381;-65
2021/10/11 11:18:04;;;;;;;3.28;2.35;;;24.40;42.40;;;;;;4982177;28;20401;-65
2021/10/11 11:20:36;;;;;;;3.67;2.70;;;24.40;42.40;;;;;;4965497;28;20995;-65
2021/10/11 11:23:13;;;;;;;3.50;2.50;;;24.50;42.20;;;;;;4981849;28;20404;-65
2021/10/11 11:25:44;;;;;;;3.03;2.50;;;24.50;42.00;;;;;;4981088;28;20392;-65
2021/10/11 11:28:13;;;;;;;3.10;2.42;;;24.60;42.10;;;;;;4982364;28;20445;-65
2021/10/11 11:30:39;;;;;;;3.10;2.40;;;24.60;42.00;;;;;;4981225;28;20392;-65
2021/10/11 11:33:11;;;;;;;3.50;2.60;;;24.70;41.90;;;;;;4983932;28;20416;-65
2021/10/11 11:35:43;;;;;;;3.60;2.70;;;24.70;41.70;;;;;;4963380;28;20406;-64
2021/10/11 11:38:11;;;;;;;3.58;2.38;;;24.70;41.70;;;;;;4984905;28;20413;-66
2021/10/11 11:40:43;;;;;;;3.30;2.40;;;24.80;41.60;;;;;;4980322;28;20399;-65
2021/10/11 11:43:10;;;;;;;3.22;2.50;;;24.90;41.50;;;;;;4982509;28;20387;-64
2021/10/11 11:45:42;;;;;;;3.78;2.58;;;24.90;41.50;;;;;;4984321;28;20403;-65
2021/10/11 11:48:10;;;;;;;3.20;2.58;;;25.00;41.50;;;;;;4966245;28;20431;-65
2021/10/11 11:50:38;;;;;;;3.15;2.42;;;25.00;41.40;;;;;;4962533;28;20800;-65
2021/10/11 11:53:10;;;;;;;3.63;2.47;;;25.10;41.30;;;;;;4983653;28;20390;-65
2021/10/11 11:55:37;;;;;;;3.33;2.60;;;25.10;41.30;;;;;;4983799;28;20958;-65
2021/10/11 11:58:04;;;;;;;3.22;2.53;;;25.10;41.20;;;;;;4981592;28;20868;-65
2021/10/11 12:00:31;;;;;;;3.53;2.40;;;25.20;41.10;;;;;;4983543;28;20394;-65
2021/10/11 12:03:01;;;;;;;3.28;2.28;;;25.30;41.40;;;;;;4983754;28;20491;-65
2021/10/11 12:05:28;;;;;;;3.50;2.50;;;25.40;41.10;;;;;;4979873;28;20412;-65
2021/10/11 12:07:57;;;;;;;3.65;2.65;;;25.40;40.80;;;;;;4982769;28;20418;-65
2021/10/11 12:10:26;;;;;;;4.75;2.50;;;25.40;40.80;;;;;;4984194;28;20390;-65
2021/10/11 12:13:00;;;;;;;3.72;2.60;;;25.50;40.80;;;;;;4982262;28;20763;-64
2021/10/11 12:15:28;;;;;;;3.30;2.50;;;25.50;40.80;;;;;;4979044;28;20503;-65
2021/10/11 12:18:02;;;;;;;3.33;2.47;;;25.60;40.70;;;;;;4982468;28;20394;-64
2021/10/11 12:20:48;;;;;;;3.80;2.40;;;25.60;40.60;;;;;;4980120;28;20392;-65
2021/10/11 12:23:16;;;;;;;3.80;2.60;;;25.60;40.70;;;;;;4981621;28;20391;-64
2021/10/11 12:25:44;;;;;;;4.85;2.92;;;25.50;40.70;;;;;;4987536;28;20834;-65
2021/10/11 12:28:19;;;;;;;8.15;3.92;;;25.20;40.50;;;;;;4983712;28;20507;-65
2021/10/11 12:30:49;;;;;;;6.13;3.95;;;25.00;40.00;;;;;;4981730;28;20428;-65
2021/10/11 12:33:19;;;;;;;11.20;4.30;;;24.70;40.10;;;;;;4980335;28;20393;-64
2021/10/11 12:35:46;;;;;;;8.10;4.32;;;24.50;39.10;;;;;;4987367;28;20397;-65
2021/10/11 12:38:15;;;;;;;7.55;4.30;;;24.30;38.60;;;;;;4992975;28;20390;-64
2021/10/11 12:40:43;;;;;;;9.25;4.22;;;24.20;39.00;;;;;;4993207;28;20390;-64
2021/10/11 12:43:22;;;;;;;10.68;4.00;;;24.10;39.40;;;;;;4993121;28;20441;-64
2021/10/11 12:46:03;;;;;;;7.40;3.63;;;24.00;40.20;;;;;;4992976;28;20391;-64
2021/10/11 12:48:29;;;;;;;9.10;3.60;;;24.00;40.50;;;;;;4993149;28;20418;-65
2021/10/11 12:50:54;;;;;;;7.13;3.63;;;23.90;41.50;;;;;;4993093;28;20802;-64
2021/10/11 12:53:28;;;;;;;6.60;3.40;;;24.00;41.90;;;;;;4993129;28;20398;-64
2021/10/11 12:55:55;;;;;;;6.28;3.58;;;24.00;42.50;;;;;;4993026;28;20394;-65
2021/10/11 12:58:25;;;;;;;7.05;3.30;;;24.00;42.50;;;;;;4992588;28;20394;-64
2021/10/11 13:00:52;;;;;;;5.97;3.20;;;24.00;42.30;;;;;;4992926;28;20407;-64
2021/10/11 13:03:18;;;;;;;5.60;3.35;;;23.90;42.60;;;;;;4987114;28;20496;-65
2021/10/11 13:05:43;;;;;;;6.45;3.42;;;23.90;42.90;;;;;;4979079;28;20507;-64
2021/10/11 13:08:09;;;;;;;4.67;3.27;;;23.80;42.30;;;;;;4978522;28;20903;-64
2021/10/11 13:10:35;;;;;;;6.05;3.00;;;23.80;42.70;;;;;;4959704;28;20402;-64
2021/10/11 13:13:01;;;;;;;4.57;3.20;;;23.80;42.60;;;;;;4976973;28;20476;-64
2021/10/11 13:15:27;;;;;;;5.40;2.92;;;23.80;42.70;;;;;;4976661;28;20396;-64
2021/10/11 13:17:53;;;;;;;6.80;2.70;;;23.70;42.80;;;;;;4980900;28;20399;-64
2021/10/11 13:20:18;;;;;;;7.13;3.00;;;23.80;46.00;;;;;;4979488;28;20406;-64
2021/10/11 13:22:44;;;;;;;5.20;2.78;;;25.00;44.20;;;;;;4972083;28;20415;-64
2021/10/11 13:25:10;;;;;;;5.63;2.63;;;25.50;42.60;;;;;;4972286;28;20395;-64
2021/10/11 13:27:36;;;;;;;5.00;2.95;;;25.80;41.70;;;;;;4980430;28;20451;-64
2021/10/11 13:46:05;;;;;;;4.15;2.60;;;26.30;40.40;;;;;;4980314;28;20483;-64
2021/10/11 14:29:57;;;;;;;4.23;2.13;;;26.30;40.10;;;;;;4983502;28;20394;-65
2021/10/11 16:03:04;;;;;;;8.80;2.67;;;25.10;43.00;;;;;;4972942;28;20464;-65
2021/10/11 16:04:59;;;;;;;7.22;2.70;;;25.10;43.20;;;;;;4959225;28;20419;-65
2021/10/11 16:07:25;;;;;;;6.60;2.53;;;25.00;42.90;;;;;;4973215;28;20512;-64
2021/10/11 16:09:52;;;;;;;8.18;2.80;;;25.00;42.60;;;;;;4973198;28;20396;-65
2021/10/11 16:12:17;;;;;;;5.63;2.95;;;25.00;42.90;;;;;;4972849;28;20422;-65
2021/10/11 16:14:43;;;;;;;6.57;2.80;;;24.90;42.90;;;;;;4971829;28;20528;-65
2021/10/11 16:17:09;;;;;;;7.47;2.72;;;24.90;42.80;;;;;;4973104;28;20879;-65
2021/10/11 16:19:34;;;;;;;7.97;3.30;;;24.80;43.10;;;;;;4973166;28;20751;-64
2021/10/11 16:22:00;;;;;;;5.68;2.50;;;24.80;43.00;;;;;;4973119;28;20399;-65
2021/10/11 16:24:26;;;;;;;5.85;2.42;;;24.80;43.30;;;;;;4972942;28;20401;-62
2021/10/11 16:26:52;;;;;;;9.30;2.70;;;24.70;43.20;;;;;;4974229;28;20412;-62
2021/10/11 16:29:18;;;;;;;4.72;2.33;;;24.70;42.40;;;;;;4974214;28;20403;-63
2021/10/11 16:31:46;;;;;;;8.00;2.88;;;24.70;43.20;;;;;;4974064;28;20391;-64
2021/10/11 16:34:12;;;;;;;6.00;2.80;;;24.60;43.30;;;;;;4973920;28;20392;-63
2021/10/11 16:36:37;;;;;;;5.10;2.63;;;24.60;43.60;;;;;;4974036;28;20398;-62
2021/10/11 16:39:04;;;;;;;5.72;2.72;;;24.60;43.60;;;;;;4974097;28;20854;-63
2021/10/11 16:41:29;;;;;;;6.93;3.10;;;24.60;43.60;;;;;;4973804;28;20480;-65
2021/10/11 16:43:56;;;;;;;8.05;3.70;;;24.50;43.50;;;;;;4973703;28;20737;-64
2021/10/11 16:46:22;;;;;;;12.32;5.30;;;24.50;43.80;;;;;;4980392;28;20403;-65
2021/10/11 16:48:47;;;;;;;12.90;4.80;;;24.50;43.40;;;;;;4981692;28;20422;-64
2021/10/11 16:51:16;;;;;;;20.17;10.20;;;24.40;43.80;;;;;;4977412;28;20399;-64
2021/10/11 16:56:32;;;;;;;24.67;10.55;;;24.40;43.50;;;;;;4992986;28;20401;-64
2021/10/11 16:59:00;;;;;;;31.63;12.23;;;24.40;43.50;;;;;;4992958;28;20431;-65
2021/10/11 17:01:26;;;;;;;42.38;16.25;;;24.30;44.30;;;;;;4992996;28;20870;-64
2021/10/11 17:03:52;;;;;;;66.85;26.15;;;24.30;45.60;;;;;;4991684;28;20405;-65
2021/10/11 17:06:17;;;;;;;122.27;52.30;;;24.30;46.50;;;;;;4992047;28;20481;-65
2021/10/11 17:08:43;;;;;;;159.60;72.88;;;24.20;49.30;;;;;;4992527;28;20789;-65
2021/10/11 17:11:09;;;;;;;135.45;56.33;;;24.30;49.20;;;;;;4992640;28;20391;-65
2021/10/11 17:13:35;;;;;;;233.40;103.27;;;24.30;46.50;;;;;;4992708;28;20426;-64
2021/10/11 17:16:01;;;;;;;421.43;191.30;;;24.20;49.40;;;;;;4992615;28;20399;-64
2021/10/11 17:18:27;;;;;;;399.52;185.23;;;24.30;49.30;;;;;;4992167;28;20870;-65
2021/10/11 17:20:53;;;;;;;324.63;149.20;;;24.20;49.80;;;;;;4992660;28;20397;-64
2021/10/11 17:23:19;;;;;;;247.70;117.75;;;24.30;50.30;;;;;;4992645;28;20402;-64
2021/10/11 17:25:45;;;;;;;197.80;89.63;;;24.30;47.80;;;;;;4993190;28;20875;-64
2021/10/11 17:28:11;;;;;;;170.50;78.97;;;24.30;51.60;;;;;;4977441;28;20437;-64
2021/10/11 17:30:40;;;;;;;157.45;74.00;;;24.30;51.90;;;;;;4992142;28;20390;-64
2021/10/11 17:33:06;;;;;;;151.52;70.70;;;24.40;53.60;;;;;;4992440;28;20391;-64
2021/10/11 17:35:31;;;;;;;152.43;67.70;;;24.40;53.10;;;;;;4991937;28;20407;-64
2021/10/11 17:37:57;;;;;;;143.38;65.28;;;24.50;52.50;;;;;;4992097;28;20398;-64
2021/10/11 17:40:23;;;;;;;135.47;63.70;;;24.50;52.10;;;;;;4985827;28;20407;-66
2021/10/11 17:42:53;;;;;;;132.45;59.08;;;24.50;51.40;;;;;;4981984;28;20483;-64
2021/10/11 17:45:18;;;;;;;122.80;55.95;;;24.40;50.60;;;;;;4981851;28;20392;-64
2021/10/11 17:47:45;;;;;;;118.80;55.60;;;24.40;50.20;;;;;;4979957;28;20507;-65
2021/10/11 17:50:11;;;;;;;119.22;54.90;;;24.40;50.30;;;;;;4981752;28;20399;-65
2021/10/11 17:52:37;;;;;;;112.93;52.53;;;24.40;50.10;;;;;;4980287;28;20415;-65
2021/10/11 17:55:04;;;;;;;109.93;51.28;;;24.40;49.70;;;;;;4980092;28;20402;-65
2021/10/11 17:57:29;;;;;;;101.90;46.70;;;24.30;49.10;;;;;;4981375;28;20386;-65
2021/10/11 17:59:56;;;;;;;97.60;44.67;;;24.20;48.80;;;;;;4980416;28;20439;-64
2021/10/11 18:02:22;;;;;;;87.93;42.28;;;24.20;48.90;;;;;;4978905;28;20413;-65
2021/10/11 18:04:47;;;;;;;87.57;41.45;;;24.10;48.50;;;;;;4964587;28;20416;-64
2021/10/11 18:07:13;;;;;;;85.30;38.60;;;24.20;48.80;;;;;;4980605;28;20829;-66
2021/10/11 18:09:39;;;;;;;75.10;36.85;;;24.20;48.40;;;;;;4981188;28;20765;-66
2021/10/11 18:12:05;;;;;;;78.70;37.30;;;24.10;48.20;;;;;;4980847;28;20398;-65
2021/10/11 18:14:30;;;;;;;72.00;34.53;;;24.10;48.00;;;;;;4977747;28;20392;-65
2021/10/11 18:16:58;;;;;;;65.47;32.70;;;24.10;47.90;;;;;;4982704;28;20754;-66